createdAt,value
2017-12-31T00:00:28.057Z,97524.05
2017-12-31T00:02:59.772Z,97527.88
2017-12-31T00:05:31.396Z,97537.12
2017-12-31T00:08:02.149Z,97537.11
2017-12-31T00:10:32.318Z,97538.86
2017-12-31T00:13:03.832Z,97536.36
2017-12-31T00:15:35.977Z,97539.45
2017-12-31T00:18:08.807Z,97541.61
2017-12-31T00:20:40.696Z,97544.95
2017-12-31T00:23:12.780Z,97557.34
2017-12-31T00:25:47.044Z,97549.34
2017-12-31T00:28:17.329Z,97552.75
2017-12-31T00:30:49.823Z,97554.27
2017-12-31T00:33:22.391Z,97556.42
2017-12-31T00:35:58.957Z,97556.66
2017-12-31T00:38:36.021Z,97569.38
2017-12-31T00:41:07.970Z,97560.92
2017-12-31T00:43:40.702Z,97558.91
2017-12-31T00:46:11.184Z,97558.09
2017-12-31T00:48:41.829Z,97564.31
2017-12-31T00:51:11.966Z,97566.88
2017-12-31T00:53:42.762Z,97564.22
2017-12-31T00:56:13.106Z,97572.06
2017-12-31T00:58:43.395Z,97567.47
2017-12-31T01:01:14.088Z,97566.06
2017-12-31T01:03:44.474Z,97563.24
2017-12-31T01:06:16.612Z,97567.05
2017-12-31T01:08:46.624Z,97586.00
2017-12-31T01:11:17.117Z,97588.58
2017-12-31T01:13:47.062Z,97587.19
2017-12-31T01:16:16.965Z,97596.66
2017-12-31T01:18:47.516Z,97599.00
2017-12-31T01:21:17.767Z,97598.41
2017-12-31T01:23:47.696Z,97611.80
2017-12-31T01:26:18.340Z,97611.89
2017-12-31T01:28:49.100Z,97619.18
2017-12-31T01:31:18.949Z,97623.13
2017-12-31T01:33:48.925Z,97614.30
2017-12-31T01:36:19.843Z,97613.47
2017-12-31T01:38:51.037Z,97610.88
2017-12-31T01:41:21.103Z,97612.88
2017-12-31T01:43:51.435Z,97608.13
2017-12-31T01:46:21.800Z,97615.21
2017-12-31T01:49:00.976Z,97623.45
2017-12-31T01:51:31.714Z,97624.78
2017-12-31T01:54:01.661Z,97631.20
2017-12-31T01:56:31.395Z,97636.44
2017-12-31T01:59:01.142Z,97638.34
2017-12-31T02:01:31.791Z,97639.08
2017-12-31T02:04:02.262Z,97642.74
2017-12-31T02:06:35.540Z,97637.35
2017-12-31T02:09:06.408Z,97654.23
2017-12-31T02:11:36.836Z,97658.39
2017-12-31T02:14:07.516Z,97661.37
2017-12-31T02:16:38.168Z,97649.23
2017-12-31T02:19:09.556Z,97656.81
2017-12-31T02:21:39.730Z,97660.96
2017-12-31T02:24:09.250Z,97667.35
2017-12-31T02:26:39.203Z,97665.92
2017-12-31T02:29:08.966Z,97668.34
2017-12-31T02:31:39.444Z,97678.17
2017-12-31T02:34:09.342Z,97678.00
2017-12-31T02:36:39.412Z,97680.66
2017-12-31T02:39:09.544Z,97689.13
2017-12-31T02:41:39.361Z,97670.94
2017-12-31T02:44:08.874Z,97682.82
2017-12-31T02:46:39.122Z,97689.91
2017-12-31T02:49:09.601Z,97699.28
2017-12-31T02:51:39.741Z,97695.11
2017-12-31T02:54:09.453Z,97696.15
2017-12-31T02:56:40.606Z,97704.70
2017-12-31T02:59:13.075Z,97698.28
2017-12-31T03:01:43.260Z,97699.94
2017-12-31T03:04:14.354Z,97702.50
2017-12-31T03:06:44.420Z,97709.30
2017-12-31T03:09:14.832Z,97706.89
2017-12-31T03:11:44.477Z,97710.30
2017-12-31T03:14:13.983Z,97708.37
2017-12-31T03:16:44.877Z,97706.95
2017-12-31T03:19:14.347Z,97713.43
2017-12-31T03:21:45.856Z,97713.68
2017-12-31T03:24:15.525Z,97716.34
2017-12-31T03:26:45.395Z,97719.06
2017-12-31T03:29:15.875Z,97713.98
2017-12-31T03:31:46.046Z,97708.75
2017-12-31T03:34:16.385Z,97706.90
2017-12-31T03:36:46.403Z,97703.19
2017-12-31T03:39:16.612Z,97704.63
2017-12-31T03:41:46.311Z,97710.14
2017-12-31T03:44:16.518Z,97711.91
2017-12-31T03:46:46.400Z,97708.98
2017-12-31T03:49:16.082Z,97711.94
2017-12-31T03:51:46.141Z,97717.01
2017-12-31T03:54:16.077Z,97712.03
2017-12-31T03:56:45.804Z,97708.75
2017-12-31T03:59:16.163Z,97708.34
2017-12-31T04:01:45.994Z,97713.45
2017-12-31T04:04:15.612Z,97707.42
2017-12-31T04:06:45.258Z,97706.59
2017-12-31T04:09:15.181Z,97702.61
2017-12-31T04:11:50.049Z,97705.31
2017-12-31T04:14:20.023Z,97702.98
2017-12-31T04:16:49.674Z,97696.43
2017-12-31T04:19:19.693Z,97696.86
2017-12-31T04:21:49.481Z,97697.34
2017-12-31T04:24:19.257Z,97685.65
2017-12-31T04:26:49.099Z,97690.79
2017-12-31T04:29:18.736Z,97695.84
2017-12-31T04:31:48.682Z,97695.95
2017-12-31T04:34:18.106Z,97692.70
2017-12-31T04:36:47.798Z,97696.61
2017-12-31T04:39:18.000Z,97700.55
2017-12-31T04:41:48.179Z,97695.19
2017-12-31T04:44:17.910Z,97694.41
2017-12-31T04:46:47.980Z,97698.64
2017-12-31T04:49:17.759Z,97696.39
2017-12-31T04:51:47.426Z,97694.32
2017-12-31T04:54:17.319Z,97694.85
2017-12-31T04:56:47.124Z,97693.28
2017-12-31T04:59:16.768Z,97697.47
2017-12-31T05:01:47.187Z,97697.55
2017-12-31T05:04:17.109Z,97698.56
2017-12-31T05:06:47.625Z,97704.11
2017-12-31T05:09:17.545Z,97700.38
2017-12-31T05:11:47.549Z,97700.21
2017-12-31T05:14:17.785Z,97696.89
2017-12-31T05:16:47.692Z,97697.60
2017-12-31T05:19:17.085Z,97689.46
2017-12-31T05:21:47.306Z,97695.96
2017-12-31T05:24:17.056Z,97688.92
2017-12-31T05:26:47.140Z,97686.80
2017-12-31T05:29:17.186Z,97682.52
2017-12-31T05:31:46.848Z,97678.00
2017-12-31T05:34:16.765Z,97675.50
2017-12-31T05:36:46.957Z,97671.57
2017-12-31T05:39:16.631Z,97671.09
2017-12-31T05:41:46.409Z,97666.53
2017-12-31T05:44:16.345Z,97667.45
2017-12-31T05:46:46.067Z,97664.54
2017-12-31T05:49:15.902Z,97665.73
2017-12-31T05:51:45.497Z,97659.92
2017-12-31T05:54:15.102Z,97664.45
2017-12-31T05:56:44.710Z,97663.45
2017-12-31T05:59:15.249Z,97666.09
2017-12-31T06:01:45.000Z,97655.88
2017-12-31T06:04:14.573Z,97654.39
2017-12-31T06:06:44.700Z,97653.48
2017-12-31T06:09:14.302Z,97648.77
2017-12-31T06:11:46.072Z,97645.18
2017-12-31T06:14:17.455Z,97651.16
2017-12-31T06:16:48.898Z,97643.80
2017-12-31T06:19:18.752Z,97646.74
2017-12-31T06:21:48.583Z,97643.16
2017-12-31T06:24:18.311Z,97650.23
2017-12-31T06:26:48.156Z,97649.19
2017-12-31T06:29:17.905Z,97650.28
2017-12-31T06:31:48.044Z,97652.58
2017-12-31T06:34:17.438Z,97648.92
2017-12-31T06:36:47.124Z,97646.85
2017-12-31T06:39:17.019Z,97648.19
2017-12-31T06:41:46.856Z,97644.00
2017-12-31T06:44:19.589Z,97646.61
2017-12-31T06:46:49.110Z,97648.98
2017-12-31T06:49:18.511Z,97647.20
2017-12-31T06:51:49.899Z,97649.66
2017-12-31T06:54:19.339Z,97650.73
2017-12-31T06:56:49.300Z,97645.66
2017-12-31T06:59:19.277Z,97647.41
2017-12-31T07:01:49.077Z,97640.68
2017-12-31T07:04:18.898Z,97644.66
2017-12-31T07:06:48.481Z,97649.28
2017-12-31T07:09:18.093Z,97647.34
2017-12-31T07:11:48.578Z,97649.18
2017-12-31T07:14:18.660Z,97650.59
2017-12-31T07:16:48.718Z,97651.63
2017-12-31T07:19:18.390Z,97651.58
2017-12-31T07:21:48.215Z,97652.06
2017-12-31T07:24:17.981Z,97660.30
2017-12-31T07:26:50.644Z,97655.43
2017-12-31T07:29:20.417Z,97659.27
2017-12-31T07:31:50.270Z,97661.58
2017-12-31T07:34:22.919Z,97660.34
2017-12-31T07:36:54.749Z,97658.05
2017-12-31T07:39:24.984Z,97661.77
2017-12-31T07:41:55.602Z,97659.38
2017-12-31T07:44:25.244Z,97660.47
2017-12-31T07:46:54.839Z,97660.62
2017-12-31T07:49:25.445Z,97673.86
2017-12-31T07:51:58.154Z,97676.77
2017-12-31T07:54:28.958Z,97675.67
2017-12-31T07:56:58.970Z,97679.11
2017-12-31T07:59:28.831Z,97682.92
2017-12-31T08:01:58.279Z,97674.78
2017-12-31T08:04:28.421Z,97686.78
2017-12-31T08:07:03.800Z,97682.44
2017-12-31T08:09:36.108Z,97694.58
2017-12-31T08:12:05.883Z,97690.08
2017-12-31T08:14:35.611Z,97693.60
2017-12-31T08:17:07.651Z,97702.58
2017-12-31T08:19:40.035Z,97696.66
2017-12-31T08:22:14.009Z,97694.98
2017-12-31T08:24:47.843Z,97704.33
2017-12-31T08:27:20.407Z,97716.23
2017-12-31T08:29:50.597Z,97713.63
2017-12-31T08:32:20.896Z,97719.48
2017-12-31T08:34:51.335Z,97715.06
2017-12-31T08:37:21.377Z,97725.06
2017-12-31T08:39:53.896Z,97724.45
2017-12-31T08:42:32.926Z,97723.47
2017-12-31T08:45:05.706Z,97735.05
2017-12-31T08:47:37.462Z,97729.32
2017-12-31T08:50:13.649Z,97734.53
2017-12-31T08:52:47.631Z,97722.83
2017-12-31T08:55:22.874Z,97736.32
2017-12-31T08:57:55.176Z,97737.98
2017-12-31T09:00:33.702Z,97743.13
2017-12-31T09:03:03.749Z,97742.65
2017-12-31T09:05:34.166Z,97749.38
2017-12-31T09:08:04.714Z,97747.88
2017-12-31T09:10:35.585Z,97739.88
2017-12-31T09:13:07.678Z,97735.63
2017-12-31T09:15:40.517Z,97731.63
2017-12-31T09:18:14.090Z,97751.70
2017-12-31T09:21:03.757Z,97744.25
2017-12-31T09:23:35.352Z,97737.28
2017-12-31T09:26:10.558Z,97741.20
2017-12-31T09:28:45.568Z,97743.01
2017-12-31T09:31:16.597Z,97737.62
2017-12-31T09:34:05.062Z,97739.42
2017-12-31T09:36:37.268Z,97730.50
2017-12-31T09:39:12.280Z,97726.27
2017-12-31T09:41:50.670Z,97720.28
2017-12-31T09:50:16.007Z,97717.81
2017-12-31T09:52:52.211Z,97713.72
2017-12-31T09:58:06.501Z,97713.76
2017-12-31T10:00:43.019Z,97728.48
2017-12-31T10:03:18.515Z,97708.20
2017-12-31T10:05:55.685Z,97717.55
2017-12-31T10:08:31.980Z,97714.92
2017-12-31T10:11:02.778Z,97708.45
2017-12-31T10:13:34.960Z,97702.84
2017-12-31T10:16:05.616Z,97715.99
2017-12-31T10:21:42.811Z,97720.14
2017-12-31T10:24:15.202Z,97731.27
2017-12-31T10:26:47.076Z,97720.46
2017-12-31T10:29:17.734Z,97707.06
2017-12-31T10:31:50.406Z,97716.27
2017-12-31T10:34:20.641Z,97710.48
2017-12-31T10:37:04.036Z,97708.03
2017-12-31T10:39:34.158Z,97707.75
2017-12-31T10:42:12.928Z,97700.34
2017-12-31T10:44:58.969Z,97698.15
2017-12-31T10:47:48.145Z,97693.81
2017-12-31T10:50:18.120Z,97684.31
2017-12-31T10:52:50.730Z,97684.05
2017-12-31T10:55:20.853Z,97699.49
2017-12-31T10:57:56.071Z,97687.97
2017-12-31T11:00:34.945Z,97705.42
2017-12-31T11:03:12.622Z,97706.50
2017-12-31T11:05:44.532Z,97713.87
2017-12-31T11:08:14.633Z,97711.80
2017-12-31T11:10:44.993Z,97709.54
2017-12-31T11:13:17.342Z,97704.49
2017-12-31T11:15:47.131Z,97707.06
2017-12-31T11:18:19.470Z,97693.95
2017-12-31T11:20:50.133Z,97703.20
2017-12-31T11:23:19.607Z,97697.16
2017-12-31T11:25:49.746Z,97695.06
2017-12-31T11:28:19.437Z,97705.55
2017-12-31T11:30:51.357Z,97697.78
2017-12-31T11:33:22.103Z,97694.50
2017-12-31T11:35:52.369Z,97694.23
2017-12-31T11:38:27.020Z,97696.90
2017-12-31T11:40:58.742Z,97703.61
2017-12-31T11:43:28.551Z,97709.64
2017-12-31T11:45:58.722Z,97715.17
2017-12-31T11:48:28.665Z,97698.41
2017-12-31T11:50:59.587Z,97707.58
2017-12-31T11:53:34.328Z,97714.89
2017-12-31T11:56:05.734Z,97701.16
2017-12-31T11:58:35.958Z,97697.95
2017-12-31T12:01:08.914Z,97689.40
2017-12-31T12:03:39.002Z,97688.69
2017-12-31T12:06:12.588Z,97684.92
2017-12-31T12:08:42.775Z,97682.20
2017-12-31T12:11:12.751Z,97677.61
2017-12-31T12:13:43.105Z,97675.46
2017-12-31T12:16:12.921Z,97679.59
2017-12-31T12:18:44.198Z,97682.57
2017-12-31T12:21:14.522Z,97683.07
2017-12-31T12:23:44.183Z,97675.81
2017-12-31T12:26:14.180Z,97679.67
2017-12-31T12:28:44.079Z,97680.41
2017-12-31T12:31:13.709Z,97671.61
2017-12-31T12:33:45.159Z,97674.88
2017-12-31T12:36:14.787Z,97688.05
2017-12-31T12:38:45.349Z,97689.98
2017-12-31T12:41:15.392Z,97691.83
2017-12-31T12:43:45.224Z,97672.45
2017-12-31T12:46:15.704Z,97680.73
2017-12-31T12:48:47.695Z,97673.34
2017-12-31T12:51:17.810Z,97681.34
2017-12-31T12:53:47.685Z,97673.74
2017-12-31T12:56:18.056Z,97681.43
2017-12-31T12:58:50.771Z,97676.87
2017-12-31T13:01:24.687Z,97686.16
2017-12-31T13:03:56.832Z,97683.22
2017-12-31T13:06:28.143Z,97681.44
2017-12-31T13:08:59.198Z,97682.16
2017-12-31T13:11:32.522Z,97671.67
2017-12-31T13:14:04.955Z,97668.73
2017-12-31T13:16:40.363Z,97673.15
2017-12-31T13:19:10.337Z,97661.42
2017-12-31T13:21:40.175Z,97666.02
2017-12-31T13:24:10.114Z,97661.19
2017-12-31T13:26:41.663Z,97653.74
2017-12-31T13:29:12.286Z,97654.57
2017-12-31T13:31:42.795Z,97646.92
2017-12-31T13:34:12.605Z,97633.95
2017-12-31T13:36:43.693Z,97633.05
2017-12-31T13:39:14.506Z,97631.89
2017-12-31T13:41:47.804Z,97638.05
2017-12-31T13:44:18.865Z,97638.11
2017-12-31T13:46:50.824Z,97642.23
2017-12-31T13:49:22.373Z,97637.55
2017-12-31T13:51:53.971Z,97646.06
2017-12-31T13:54:24.453Z,97642.34
2017-12-31T13:56:55.381Z,97641.14
2017-12-31T13:59:26.334Z,97642.66
2017-12-31T14:01:56.858Z,97637.97
2017-12-31T14:04:26.353Z,97641.23
2017-12-31T14:06:56.981Z,97639.16
2017-12-31T14:09:29.911Z,97641.17
2017-12-31T14:11:59.936Z,97645.55
2017-12-31T14:14:30.353Z,97646.74
2017-12-31T14:16:59.971Z,97628.44
2017-12-31T14:19:30.505Z,97635.20
2017-12-31T14:22:00.547Z,97631.16
2017-12-31T14:24:30.303Z,97633.37
2017-12-31T14:27:02.579Z,97639.66
2017-12-31T14:29:36.014Z,97631.85
2017-12-31T14:32:06.447Z,97629.73
2017-12-31T14:34:36.921Z,97627.43
2017-12-31T14:37:08.610Z,97630.97
2017-12-31T14:39:39.169Z,97617.73
2017-12-31T14:42:11.996Z,97615.97
2017-12-31T14:44:43.645Z,97616.92
2017-12-31T14:47:15.875Z,97618.55
2017-12-31T14:49:48.012Z,97617.36
2017-12-31T14:52:18.553Z,97609.36
2017-12-31T14:54:49.494Z,97610.51
2017-12-31T14:57:20.866Z,97610.91
2017-12-31T14:59:51.574Z,97601.48
2017-12-31T15:02:21.326Z,97592.66
2017-12-31T15:04:52.012Z,97599.19
2017-12-31T15:07:23.654Z,97579.55
2017-12-31T15:09:54.518Z,97584.05
2017-12-31T15:12:24.476Z,97575.51
2017-12-31T15:14:54.299Z,97577.63
2017-12-31T15:17:24.748Z,97574.88
2017-12-31T15:19:55.228Z,97565.34
2017-12-31T15:22:25.286Z,97560.98
2017-12-31T15:24:55.060Z,97550.31
2017-12-31T15:27:26.194Z,97546.18
2017-12-31T15:29:58.626Z,97538.46
2017-12-31T15:32:29.111Z,97531.34
2017-12-31T15:34:59.004Z,97519.73
2017-12-31T15:37:29.777Z,97517.86
2017-12-31T15:40:00.601Z,97510.55
2017-12-31T15:42:30.153Z,97495.53
2017-12-31T15:45:00.612Z,97503.84
2017-12-31T15:47:32.029Z,97500.44
2017-12-31T15:50:02.012Z,97495.39
2017-12-31T15:52:31.949Z,97501.83
2017-12-31T15:55:02.888Z,97484.41
2017-12-31T15:57:33.861Z,97478.48
2017-12-31T16:00:05.021Z,97478.16
2017-12-31T16:02:35.137Z,97474.58
2017-12-31T16:05:07.095Z,97469.05
2017-12-31T16:07:40.473Z,97460.70
2017-12-31T16:10:10.756Z,97460.30
2017-12-31T16:12:40.935Z,97459.45
2017-12-31T16:15:11.452Z,97455.05
2017-12-31T16:17:42.513Z,97458.64
2017-12-31T16:20:15.305Z,97464.89
2017-12-31T16:22:46.287Z,97467.68
2017-12-31T16:25:17.269Z,97462.26
2017-12-31T16:27:47.571Z,97463.23
2017-12-31T16:30:17.531Z,97448.72
2017-12-31T16:32:53.106Z,97458.04
2017-12-31T16:35:24.119Z,97458.13
2017-12-31T16:37:54.312Z,97451.19
2017-12-31T16:40:23.992Z,97443.42
2017-12-31T16:42:54.193Z,97439.56
2017-12-31T16:45:24.390Z,97440.72
2017-12-31T16:47:54.940Z,97438.92
2017-12-31T16:50:24.485Z,97440.94
2017-12-31T16:52:54.220Z,97444.94
2017-12-31T16:55:24.555Z,97442.19
2017-12-31T16:57:54.925Z,97431.29
2017-12-31T17:00:25.268Z,97439.14
2017-12-31T17:02:55.249Z,97430.00
2017-12-31T17:05:26.799Z,97435.29
2017-12-31T17:07:57.164Z,97441.91
2017-12-31T17:10:27.413Z,97431.02
2017-12-31T17:12:57.529Z,97424.50
2017-12-31T17:15:27.548Z,97431.84
2017-12-31T17:17:57.291Z,97421.83
2017-12-31T17:20:28.646Z,97436.11
2017-12-31T17:22:58.636Z,97431.84
2017-12-31T17:25:30.570Z,97447.46
2017-12-31T17:28:00.559Z,97457.48
2017-12-31T17:30:31.277Z,97452.34
2017-12-31T17:33:05.827Z,97455.00
2017-12-31T17:35:36.831Z,97444.44
2017-12-31T17:38:10.576Z,97433.64
2017-12-31T17:40:41.504Z,97437.97
2017-12-31T17:43:12.601Z,97430.03
2017-12-31T17:45:43.142Z,97427.98
2017-12-31T17:48:14.644Z,97419.77
2017-12-31T17:50:44.480Z,97417.01
2017-12-31T17:53:15.123Z,97423.82
2017-12-31T17:55:45.279Z,97412.16
2017-12-31T17:58:14.802Z,97404.47
2017-12-31T18:00:44.824Z,97405.25
2017-12-31T18:03:17.870Z,97393.77
2017-12-31T18:05:50.781Z,97391.91
2017-12-31T18:08:27.757Z,97403.84
2017-12-31T18:11:10.518Z,97384.00
2017-12-31T18:13:47.986Z,97387.54
2017-12-31T18:16:19.446Z,97377.63
2017-12-31T18:18:51.286Z,97376.80
2017-12-31T18:21:23.304Z,97382.81
2017-12-31T18:23:57.573Z,97384.28
2017-12-31T18:26:32.787Z,97379.87
2017-12-31T18:29:23.377Z,97383.22
2017-12-31T18:31:55.337Z,97366.91
2017-12-31T18:34:26.865Z,97367.28
2017-12-31T18:37:00.816Z,97373.71
2017-12-31T18:39:46.472Z,97375.98
2017-12-31T18:42:17.051Z,97370.04
2017-12-31T18:44:52.616Z,97373.26
2017-12-31T18:47:26.787Z,97371.64
2017-12-31T18:50:06.746Z,97368.45
2017-12-31T18:52:36.574Z,97377.20
2017-12-31T18:55:25.591Z,97371.38
2017-12-31T18:57:57.074Z,97367.47
2017-12-31T19:00:27.907Z,97368.30
2017-12-31T19:03:12.442Z,97368.50
2017-12-31T19:05:53.376Z,97359.30
2017-12-31T19:09:26.284Z,97360.83
2017-12-31T19:11:56.304Z,97356.59
2017-12-31T19:14:28.273Z,97360.05
2017-12-31T19:16:58.343Z,97360.68
2017-12-31T19:19:30.210Z,97357.06
2017-12-31T19:22:03.157Z,97351.66
2017-12-31T19:24:37.773Z,97359.06
2017-12-31T19:27:12.048Z,97359.94
2017-12-31T19:29:42.955Z,97367.06
2017-12-31T19:32:13.028Z,97368.44
2017-12-31T19:35:16.967Z,97368.45
2017-12-31T19:37:51.966Z,97376.11
2017-12-31T19:40:26.914Z,97361.00
2017-12-31T19:42:58.347Z,97352.61
2017-12-31T19:45:29.754Z,97358.90
2017-12-31T19:48:00.124Z,97371.66
2017-12-31T19:50:29.946Z,97358.80
2017-12-31T19:52:59.469Z,97365.88
2017-12-31T19:55:29.253Z,97362.07
2017-12-31T19:57:58.888Z,97364.27
2017-12-31T20:00:28.673Z,97357.42
2017-12-31T20:02:58.547Z,97364.32
2017-12-31T20:05:28.136Z,97356.50
2017-12-31T20:07:57.848Z,97343.20
2017-12-31T20:10:27.626Z,97355.86
2017-12-31T20:12:57.631Z,97350.68
2017-12-31T20:15:33.276Z,97349.89
2017-12-31T20:18:02.870Z,97349.58
2017-12-31T20:20:32.433Z,97348.52
2017-12-31T20:23:02.070Z,97339.84
2017-12-31T20:25:31.910Z,97342.46
2017-12-31T20:28:04.889Z,97336.72
2017-12-31T20:30:35.184Z,97340.16
2017-12-31T20:33:05.527Z,97337.73
2017-12-31T20:35:35.126Z,97329.83
2017-12-31T20:38:05.967Z,97325.39
2017-12-31T20:40:36.942Z,97321.06
2017-12-31T20:43:07.071Z,97319.97
2017-12-31T20:45:39.225Z,97315.38
2017-12-31T20:48:10.317Z,97308.22
2017-12-31T20:50:40.034Z,97310.05
2017-12-31T20:53:10.361Z,97307.17
2017-12-31T20:55:41.783Z,97305.09
2017-12-31T20:58:11.956Z,97306.23
2017-12-31T21:00:42.170Z,97290.73
2017-12-31T21:03:12.796Z,97286.11
2017-12-31T21:05:44.420Z,97294.08
2017-12-31T21:08:16.049Z,97283.48
2017-12-31T21:10:47.412Z,97275.75
2017-12-31T21:13:17.509Z,97278.65
2017-12-31T21:15:48.556Z,97271.41
2017-12-31T21:18:18.481Z,97266.84
2017-12-31T21:20:48.290Z,97267.63
2017-12-31T21:23:19.154Z,97258.05
2017-12-31T21:25:48.916Z,97247.83
2017-12-31T21:28:20.086Z,97248.38
2017-12-31T21:30:50.499Z,97241.97
2017-12-31T21:33:23.363Z,97222.91
2017-12-31T21:35:53.597Z,97220.42
2017-12-31T21:38:24.269Z,97210.18
2017-12-31T21:40:54.906Z,97216.27
2017-12-31T21:43:25.664Z,97206.30
2017-12-31T21:45:57.060Z,97206.31
2017-12-31T21:48:28.444Z,97193.44
2017-12-31T21:50:58.375Z,97196.94
2017-12-31T21:53:28.382Z,97194.38
2017-12-31T21:55:59.712Z,97194.29
2017-12-31T21:58:30.015Z,97194.17
2017-12-31T22:01:01.004Z,97196.03
2017-12-31T22:03:31.817Z,97202.14
2017-12-31T22:06:04.362Z,97214.34
2017-12-31T22:08:37.749Z,97202.38
2017-12-31T22:11:08.439Z,97222.05
2017-12-31T22:13:40.211Z,97223.09
2017-12-31T22:16:10.021Z,97219.91
2017-12-31T22:18:39.778Z,97221.41
2017-12-31T22:21:10.160Z,97212.94
2017-12-31T22:23:42.408Z,97206.39
2017-12-31T22:26:13.582Z,97198.70
2017-12-31T22:28:45.453Z,97201.87
2017-12-31T22:31:17.585Z,97194.66
2017-12-31T22:33:49.410Z,97196.15
2017-12-31T22:36:22.036Z,97195.42
2017-12-31T22:38:52.627Z,97191.85
2017-12-31T22:41:22.675Z,97195.91
2017-12-31T22:43:54.344Z,97190.23
2017-12-31T22:46:25.486Z,97177.56
2017-12-31T22:48:57.574Z,97181.33
2017-12-31T22:51:27.805Z,97163.30
2017-12-31T22:53:58.375Z,97167.62
2017-12-31T22:56:28.796Z,97150.33
2017-12-31T22:58:59.222Z,97161.56
2017-12-31T23:01:29.888Z,97155.33
2017-12-31T23:04:02.208Z,97154.41
2017-12-31T23:06:33.330Z,97154.02
2017-12-31T23:09:05.467Z,97164.78
2017-12-31T23:11:37.087Z,97157.86
2017-12-31T23:14:07.917Z,97162.58
2017-12-31T23:16:39.534Z,97150.89
2017-12-31T23:19:10.657Z,97154.80
2017-12-31T23:21:42.190Z,97148.93
2017-12-31T23:24:13.114Z,97151.05
2017-12-31T23:26:45.557Z,97153.75
2017-12-31T23:29:16.706Z,97149.66
2017-12-31T23:31:50.204Z,97135.29
2017-12-31T23:34:23.132Z,97145.66
2017-12-31T23:36:56.645Z,97141.58
2017-12-31T23:39:28.934Z,97136.12
2017-12-31T23:42:05.835Z,97136.49
2017-12-31T23:44:38.270Z,97132.14
2017-12-31T23:47:11.474Z,97135.59
2017-12-31T23:49:42.976Z,97139.28
2017-12-31T23:52:13.846Z,97146.57
2017-12-31T23:54:45.103Z,97126.17
2017-12-31T23:57:16.102Z,97120.75
2017-12-31T23:59:46.396Z,97137.23
